Time;durP1;ratioP1;P1;durP2;ratioP2;P2;SDS_P1;SDS_P2;PMS_P1;PMS_P2;Temp;Humidity;BMP_temperature;BMP_pressure;BME280_temperature;BME280_humidity;BME280_pressure;Samples;Min_cycle;Max_cycle;Signal;HPM_P1;HPM_P2
2023/04/04 00:00:50;;;;;;;3.53;1.50;;;;;;;;;;4997927;28;20486;-78
2023/04/04 00:03:17;;;;;;;3.40;1.75;;;;;;;;;;4997696;28;20137;-77
2023/04/04 00:05:45;;;;;;;4.50;2.00;;;;;;;;;;4997674;28;20061;-77
2023/04/04 00:08:12;;;;;;;1.80;1.38;;;;;;;;;;5031026;28;20049;-76
2023/04/04 00:10:40;;;;;;;2.10;1.70;;;;;;;;;;5032497;28;20054;-77
2023/04/04 00:13:09;;;;;;;2.78;1.60;;;;;;;;;;5030880;28;20528;-77
2023/04/04 00:15:36;;;;;;;3.20;2.15;;;;;;;;;;4996415;28;20057;-76
2023/04/04 00:18:06;;;;;;;2.50;1.42;;;;;;;;;;4995372;28;20038;-78
2023/04/04 00:20:34;;;;;;;2.30;1.60;;;;;;;;;;4997799;28;20061;-78
2023/04/04 00:23:01;;;;;;;2.85;1.60;;;;;;;;;;5005829;28;20069;-77
2023/04/04 00:25:31;;;;;;;2.95;1.80;;;;;;;;;;4999711;28;20061;-78
2023/04/04 00:27:59;;;;;;;3.08;2.05;;;;;;;;;;4998315;28;20085;-77
2023/04/04 00:30:27;;;;;;;4.28;2.00;;;;;;;;;;5016253;28;20417;-77
2023/04/04 00:32:58;;;;;;;6.10;1.80;;;;;;;;;;5011969;28;20057;-77
2023/04/04 00:35:28;;;;;;;2.90;1.67;;;;;;;;;;5011910;28;20508;-76
2023/04/04 00:37:55;;;;;;;2.97;1.63;;;;;;;;;;5013049;28;20529;-76
2023/04/04 00:40:23;;;;;;;2.83;1.73;;;;;;;;;;5013497;28;20893;-77
2023/04/04 00:42:52;;;;;;;3.60;1.80;;;;;;;;;;5030060;28;20058;-78
2023/04/04 00:45:20;;;;;;;4.00;1.80;;;;;;;;;;4998660;28;20152;-78
2023/04/04 00:47:48;;;;;;;2.85;1.65;;;;;;;;;;4994926;28;20860;-77
2023/04/04 00:50:16;;;;;;;3.38;1.60;;;;;;;;;;4993168;28;20050;-77
2023/04/04 00:52:44;;;;;;;2.92;2.00;;;;;;;;;;4992477;28;20061;-76
2023/04/04 00:55:11;;;;;;;5.00;1.50;;;;;;;;;;4993035;28;20064;-77
2023/04/04 00:57:41;;;;;;;2.28;1.83;;;;;;;;;;4989088;28;20058;-77
2023/04/04 01:00:09;;;;;;;4.45;2.20;;;;;;;;;;4976925;28;20058;-77
2023/04/04 01:02:37;;;;;;;3.92;2.20;;;;;;;;;;4992881;28;20105;-77
2023/04/04 01:05:08;;;;;;;2.38;1.92;;;;;;;;;;4992195;28;20058;-77
2023/04/04 01:07:38;;;;;;;5.15;1.73;;;;;;;;;;5007914;28;20057;-77
2023/04/04 01:10:06;;;;;;;3.08;1.83;;;;;;;;;;5011881;28;20128;-77
2023/04/04 01:12:36;;;;;;;3.30;2.00;;;;;;;;;;5011844;28;20054;-77
2023/04/04 01:15:06;;;;;;;3.10;2.20;;;;;;;;;;4980024;28;20053;-75
2023/04/04 01:17:34;;;;;;;3.92;2.35;;;;;;;;;;4980798;28;20050;-76
2023/04/04 01:20:19;;;;;;;2.40;1.80;;;;;;;;;;4991350;28;20046;-76
2023/04/04 01:22:47;;;;;;;5.20;2.10;;;;;;;;;;4992706;28;20584;-76
2023/04/04 01:25:15;;;;;;;4.60;1.70;;;;;;;;;;4974468;28;20062;-76
2023/04/04 01:27:42;;;;;;;5.05;2.20;;;;;;;;;;4983488;28;20558;-75
2023/04/04 01:30:10;;;;;;;3.85;2.10;;;;;;;;;;4973879;28;20050;-76
2023/04/04 01:33:27;;;;;;;3.28;1.77;;;;;;;;;;4989875;28;20057;-76
2023/04/04 01:36:03;;;;;;;5.15;2.13;;;;;;;;;;4989255;28;20058;-76
2023/04/04 01:38:42;;;;;;;2.05;1.83;;;;;;;;;;5006041;28;20047;-76
2023/04/04 01:41:12;;;;;;;5.10;2.17;;;;;;;;;;4989633;28;20050;-76
2023/04/04 01:43:39;;;;;;;5.20;2.20;;;;;;;;;;4989838;28;20052;-76
2023/04/04 01:46:09;;;;;;;4.07;2.00;;;;;;;;;;4989774;28;20061;-76
2023/04/04 01:48:39;;;;;;;2.75;2.15;;;;;;;;;;5008609;28;20092;-76
2023/04/04 01:51:09;;;;;;;2.72;2.10;;;;;;;;;;4976014;28;20054;-77
2023/04/04 01:53:39;;;;;;;4.78;2.15;;;;;;;;;;4992733;28;20054;-77
2023/04/04 01:56:07;;;;;;;6.03;2.05;;;;;;;;;;5010180;28;20050;-77
2023/04/04 01:58:40;;;;;;;2.72;2.20;;;;;;;;;;4997498;28;20688;-77
2023/04/04 02:01:10;;;;;;;3.35;2.15;;;;;;;;;;5013603;28;20080;-77
2023/04/04 02:03:38;;;;;;;6.78;2.28;;;;;;;;;;5029294;28;20104;-77
2023/04/04 02:06:08;;;;;;;3.63;2.40;;;;;;;;;;5013930;28;20065;-77
2023/04/04 02:08:37;;;;;;;4.85;2.20;;;;;;;;;;4992201;28;20068;-76
2023/04/04 02:11:06;;;;;;;5.10;2.33;;;;;;;;;;4997244;28;20050;-77
2023/04/04 02:13:43;;;;;;;3.30;2.45;;;;;;;;;;5029948;28;20053;-77
2023/04/04 02:16:10;;;;;;;2.55;2.00;;;;;;;;;;4999086;28;20076;-77
2023/04/04 02:18:38;;;;;;;5.47;2.20;;;;;;;;;;5016313;28;20127;-77
2023/04/04 02:21:05;;;;;;;2.83;2.03;;;;;;;;;;5034635;28;20057;-78
2023/04/04 02:23:32;;;;;;;4.55;2.35;;;;;;;;;;5034479;28;20053;-78
2023/04/04 02:26:00;;;;;;;5.55;2.00;;;;;;;;;;5001359;28;20421;-77
2023/04/04 02:28:27;;;;;;;4.30;2.28;;;;;;;;;;5000536;28;20053;-77
2023/04/04 02:30:55;;;;;;;5.57;2.40;;;;;;;;;;5000862;28;20060;-77
2023/04/04 02:33:22;;;;;;;2.58;2.13;;;;;;;;;;5002346;28;20089;-77
2023/04/04 02:35:50;;;;;;;3.25;1.90;;;;;;;;;;5002859;28;20704;-77
2023/04/04 02:38:17;;;;;;;3.80;2.10;;;;;;;;;;5018980;28;20417;-78
2023/04/04 02:40:47;;;;;;;3.47;1.95;;;;;;;;;;4986434;28;20053;-78
2023/04/04 02:43:15;;;;;;;6.82;2.05;;;;;;;;;;5000985;28;20057;-77
2023/04/04 02:45:43;;;;;;;3.85;1.55;;;;;;;;;;5035103;28;20857;-77
2023/04/04 02:48:14;;;;;;;7.78;2.10;;;;;;;;;;4997738;28;20057;-77
2023/04/04 02:50:42;;;;;;;2.88;2.03;;;;;;;;;;4982528;28;20050;-77
2023/04/04 02:53:10;;;;;;;2.92;2.30;;;;;;;;;;4981374;28;20132;-77
2023/04/04 02:55:37;;;;;;;7.68;3.63;;;;;;;;;;4981431;28;20056;-77
2023/04/04 02:58:05;;;;;;;6.35;2.85;;;;;;;;;;5007380;28;20054;-77
2023/04/04 03:00:32;;;;;;;4.57;2.53;;;;;;;;;;4981123;28;20050;-78
2023/04/04 03:03:00;;;;;;;3.90;2.33;;;;;;;;;;4997261;28;20124;-77
2023/04/04 03:05:29;;;;;;;4.60;2.47;;;;;;;;;;4997734;28;20060;-77
2023/04/04 03:07:57;;;;;;;4.82;2.50;;;;;;;;;;4991470;28;20049;-78
2023/04/04 03:10:25;;;;;;;6.30;2.58;;;;;;;;;;5030724;28;20046;-77
2023/04/04 03:12:52;;;;;;;4.45;2.35;;;;;;;;;;5031639;28;20124;-77
2023/04/04 03:15:19;;;;;;;2.85;1.73;;;;;;;;;;5004765;28;20459;-78
2023/04/04 03:17:46;;;;;;;4.03;1.98;;;;;;;;;;4964826;28;20400;-77
2023/04/04 03:20:13;;;;;;;3.10;1.98;;;;;;;;;;4995070;28;20050;-76
2023/04/04 03:22:41;;;;;;;4.55;2.20;;;;;;;;;;4995757;28;20066;-77
2023/04/04 03:25:08;;;;;;;5.13;2.35;;;;;;;;;;4970550;28;20064;-77
2023/04/04 03:27:35;;;;;;;3.75;2.25;;;;;;;;;;4978514;28;20469;-76
2023/04/04 03:30:02;;;;;;;7.13;2.55;;;;;;;;;;4978783;28;20109;-77
2023/04/04 03:32:29;;;;;;;3.60;2.70;;;;;;;;;;4979948;28;20054;-77
2023/04/04 03:34:56;;;;;;;4.45;2.20;;;;;;;;;;4997357;28;20046;-77
2023/04/04 03:37:23;;;;;;;3.97;2.53;;;;;;;;;;4997702;28;20054;-77
2023/04/04 03:39:49;;;;;;;3.13;2.05;;;;;;;;;;4994930;28;20458;-77
2023/04/04 03:42:16;;;;;;;5.65;3.75;;;;;;;;;;4991813;28;20054;-76
2023/04/04 03:44:43;;;;;;;4.68;2.30;;;;;;;;;;4994946;28;20054;-76
2023/04/04 03:47:09;;;;;;;3.75;2.38;;;;;;;;;;4975266;28;20046;-76
2023/04/04 03:49:36;;;;;;;4.38;2.58;;;;;;;;;;4984543;28;20132;-75
2023/04/04 03:52:03;;;;;;;5.18;2.30;;;;;;;;;;4978185;28;20093;-76
2023/04/04 03:54:30;;;;;;;4.95;2.38;;;;;;;;;;4994280;28;20049;-75
2023/04/04 03:56:57;;;;;;;2.97;2.40;;;;;;;;;;5010470;28;20061;-76
2023/04/04 03:59:24;;;;;;;3.25;2.35;;;;;;;;;;5010761;28;20422;-76
2023/04/04 04:01:51;;;;;;;5.93;2.65;;;;;;;;;;5010376;28;20422;-75
2023/04/04 04:04:18;;;;;;;3.13;2.00;;;;;;;;;;5010453;28;20098;-76
2023/04/04 04:06:44;;;;;;;6.32;2.38;;;;;;;;;;4994196;28;20062;-76
2023/04/04 04:09:11;;;;;;;3.90;2.45;;;;;;;;;;5022437;28;20504;-75
2023/04/04 04:11:38;;;;;;;3.08;2.17;;;;;;;;;;4974452;28;20084;-74
2023/04/04 04:14:05;;;;;;;4.78;2.63;;;;;;;;;;4989146;28;20233;-74
2023/04/04 04:16:32;;;;;;;3.72;2.42;;;;;;;;;;4977845;28;20045;-76
2023/04/04 04:18:59;;;;;;;2.83;2.38;;;;;;;;;;4993970;28;20063;-79
2023/04/04 04:21:25;;;;;;;4.80;2.78;;;;;;;;;;4994293;28;20469;-76
2023/04/04 04:23:52;;;;;;;3.55;2.47;;;;;;;;;;4974379;28;20149;-75
2023/04/04 04:26:20;;;;;;;6.82;2.72;;;;;;;;;;4990508;28;20054;-76
2023/04/04 04:28:47;;;;;;;3.85;2.67;;;;;;;;;;4990021;28;20050;-75
2023/04/04 04:31:13;;;;;;;6.18;3.85;;;;;;;;;;4990058;28;20142;-76
2023/04/04 04:33:40;;;;;;;6.22;2.58;;;;;;;;;;4974040;28;20452;-75
2023/04/04 04:36:07;;;;;;;4.25;2.72;;;;;;;;;;4990586;28;20422;-76
2023/04/04 04:38:34;;;;;;;4.43;2.65;;;;;;;;;;4977552;28;20049;-76
2023/04/04 04:41:01;;;;;;;7.90;3.28;;;;;;;;;;4993232;28;20056;-76
2023/04/04 04:43:28;;;;;;;3.13;2.78;;;;;;;;;;5009912;28;20057;-75
2023/04/04 04:45:54;;;;;;;7.13;2.63;;;;;;;;;;4993722;28;20049;-76
2023/04/04 04:48:21;;;;;;;6.07;2.95;;;;;;;;;;4977567;28;20514;-76
2023/04/04 04:50:48;;;;;;;5.18;2.97;;;;;;;;;;4979907;28;20132;-76
2023/04/04 04:53:15;;;;;;;4.10;2.90;;;;;;;;;;4993915;28;20061;-76
2023/04/04 04:55:42;;;;;;;3.75;2.70;;;;;;;;;;4995285;28;20104;-76
2023/04/04 04:58:09;;;;;;;5.55;3.17;;;;;;;;;;4996402;28;20056;-76
2023/04/04 05:00:37;;;;;;;3.42;2.90;;;;;;;;;;4997540;28;20054;-77
2023/04/04 05:03:05;;;;;;;5.88;2.85;;;;;;;;;;4983258;28;20144;-77
2023/04/04 05:05:33;;;;;;;4.72;3.80;;;;;;;;;;5013948;28;20050;-78
2023/04/04 05:08:01;;;;;;;6.03;4.20;;;;;;;;;;4983011;28;20058;-77
2023/04/04 05:10:29;;;;;;;9.43;5.35;;;;;;;;;;4998395;28;20109;-77
2023/04/04 05:12:56;;;;;;;10.48;7.13;;;;;;;;;;4999125;28;20096;-78
2023/04/04 05:15:24;;;;;;;18.50;13.40;;;;;;;;;;4978888;28;20085;-77
2023/04/04 05:17:51;;;;;;;21.13;15.23;;;;;;;;;;4992267;28;20183;-78
2023/04/04 05:20:18;;;;;;;14.45;9.70;;;;;;;;;;4999569;28;20060;-77
2023/04/04 05:22:45;;;;;;;9.63;5.65;;;;;;;;;;4998955;28;20058;-77
2023/04/04 05:25:13;;;;;;;8.02;4.45;;;;;;;;;;5000835;28;20085;-77
2023/04/04 05:27:40;;;;;;;10.32;5.03;;;;;;;;;;5016309;28;20053;-76
2023/04/04 05:30:08;;;;;;;5.90;4.15;;;;;;;;;;4997790;28;20045;-78
2023/04/04 05:32:35;;;;;;;8.00;4.65;;;;;;;;;;4975873;28;20140;-80
2023/04/04 05:35:02;;;;;;;9.18;5.40;;;;;;;;;;5005622;28;20121;-73
2023/04/04 05:37:29;;;;;;;8.07;5.40;;;;;;;;;;4976523;28;20050;-79
2023/04/04 05:40:01;;;;;;;6.88;4.55;;;;;;;;;;5002536;28;20217;-79
2023/04/04 05:42:28;;;;;;;7.75;4.82;;;;;;;;;;5010936;28;20060;-79
2023/04/04 05:44:54;;;;;;;5.78;4.05;;;;;;;;;;4996311;28;20145;-77
2023/04/04 05:47:21;;;;;;;7.18;3.90;;;;;;;;;;4996678;28;20062;-79
2023/04/04 05:49:48;;;;;;;7.07;3.95;;;;;;;;;;4995018;28;20050;-79
2023/04/04 05:52:15;;;;;;;6.72;3.20;;;;;;;;;;4977948;28;20058;-80
2023/04/04 05:54:42;;;;;;;5.30;3.10;;;;;;;;;;4983832;28;20581;-81
2023/04/04 05:57:09;;;;;;;4.95;3.05;;;;;;;;;;5000940;28;20129;-80
2023/04/04 05:59:35;;;;;;;6.45;3.40;;;;;;;;;;5003365;28;20042;-81
2023/04/04 06:02:02;;;;;;;6.10;3.85;;;;;;;;;;5010691;28;20058;-82
2023/04/04 06:04:29;;;;;;;6.28;3.40;;;;;;;;;;4985891;28;20056;-82
2023/04/04 06:06:55;;;;;;;6.32;3.00;;;;;;;;;;4987072;28;20088;-82
2023/04/04 06:09:22;;;;;;;6.78;2.90;;;;;;;;;;4983996;28;20057;-82
2023/04/04 06:11:49;;;;;;;5.18;3.35;;;;;;;;;;5011091;28;20057;-82
2023/04/04 06:14:16;;;;;;;7.57;3.08;;;;;;;;;;4986213;28;20053;-82
2023/04/04 06:16:42;;;;;;;9.50;3.08;;;;;;;;;;5001790;28;20045;-82
2023/04/04 06:19:09;;;;;;;4.28;3.10;;;;;;;;;;5021365;28;20060;-82
2023/04/04 06:21:36;;;;;;;4.55;3.55;;;;;;;;;;5019758;28;20133;-82
2023/04/04 06:24:03;;;;;;;5.28;3.13;;;;;;;;;;5018840;28;20109;-81
2023/04/04 06:26:30;;;;;;;4.72;3.13;;;;;;;;;;5020924;28;20461;-81
2023/04/04 06:28:56;;;;;;;4.60;3.08;;;;;;;;;;5006069;28;20056;-82
2023/04/04 06:31:23;;;;;;;5.93;3.00;;;;;;;;;;4990401;28;20121;-82
2023/04/04 06:33:50;;;;;;;5.45;3.03;;;;;;;;;;5007350;28;20058;-82
2023/04/04 06:36:17;;;;;;;4.90;3.05;;;;;;;;;;5007360;28;20122;-81
2023/04/04 06:38:44;;;;;;;6.60;2.80;;;;;;;;;;5006958;28;20073;-80
2023/04/04 06:41:11;;;;;;;5.30;3.33;;;;;;;;;;5019062;28;20042;-82
2023/04/04 06:43:37;;;;;;;5.68;2.65;;;;;;;;;;5014611;28;20053;-70
2023/04/04 06:46:05;;;;;;;4.72;2.88;;;;;;;;;;5027309;28;20058;-81
2023/04/04 06:48:32;;;;;;;5.75;2.70;;;;;;;;;;5020447;28;20058;-80
2023/04/04 06:50:58;;;;;;;5.55;2.60;;;;;;;;;;5025577;28;20403;-79
2023/04/04 06:53:25;;;;;;;4.50;2.88;;;;;;;;;;5041454;28;20128;-80
2023/04/04 06:55:52;;;;;;;5.63;3.00;;;;;;;;;;5014286;28;20049;-78
2023/04/04 06:58:19;;;;;;;7.95;2.90;;;;;;;;;;5019385;28;20058;-81
2023/04/04 07:00:46;;;;;;;5.20;2.20;;;;;;;;;;4998771;28;20052;-81
2023/04/04 07:03:12;;;;;;;4.30;2.38;;;;;;;;;;5014922;28;20363;-79
2023/04/04 07:05:40;;;;;;;4.57;2.55;;;;;;;;;;5015803;28;20080;-81
2023/04/04 07:08:07;;;;;;;3.53;2.33;;;;;;;;;;4981002;28;20469;-81
2023/04/04 07:10:34;;;;;;;4.95;2.50;;;;;;;;;;4993490;28;20051;-81
2023/04/04 07:13:00;;;;;;;3.70;2.55;;;;;;;;;;4992186;28;20496;-81
2023/04/04 07:15:27;;;;;;;6.68;2.50;;;;;;;;;;4991325;28;20070;-80
2023/04/04 07:17:54;;;;;;;4.90;2.00;;;;;;;;;;4991472;28;20139;-80
2023/04/04 07:20:22;;;;;;;4.07;2.67;;;;;;;;;;4989107;28;20056;-82
2023/04/04 07:22:49;;;;;;;7.13;3.35;;;;;;;;;;4987241;28;20060;-77
2023/04/04 07:25:16;;;;;;;3.50;2.35;;;;;;;;;;5020478;28;20064;-84
2023/04/04 07:27:44;;;;;;;3.63;2.17;;;;;;;;;;5002785;28;20041;-83
2023/04/04 07:30:11;;;;;;;3.53;1.95;;;;;;;;;;5002351;28;20038;-81
2023/04/04 07:32:39;;;;;;;3.13;1.90;;;;;;;;;;4997538;28;20204;-82
2023/04/04 07:35:06;;;;;;;4.88;2.13;;;;;;;;;;5004807;28;20413;-82
2023/04/04 07:37:37;;;;;;;3.97;2.67;;;;;;;;;;5001637;28;20104;-81
2023/04/04 07:40:07;;;;;;;4.55;2.35;;;;;;;;;;5004455;28;20512;-81
2023/04/04 07:42:34;;;;;;;3.95;2.40;;;;;;;;;;4993270;28;20582;-82
2023/04/04 07:45:01;;;;;;;4.57;2.10;;;;;;;;;;4999304;28;20050;-82
2023/04/04 07:47:28;;;;;;;1.70;1.50;;;;;;;;;;5006955;28;20050;-82
2023/04/04 07:49:55;;;;;;;4.32;2.22;;;;;;;;;;5017874;28;20065;-84
2023/04/04 07:52:22;;;;;;;4.38;2.17;;;;;;;;;;5008739;28;20045;-84
2023/04/04 07:54:51;;;;;;;4.65;2.00;;;;;;;;;;5014379;28;20046;-84
2023/04/04 07:57:17;;;;;;;5.22;2.00;;;;;;;;;;5005097;28;20133;-83
2023/04/04 07:59:44;;;;;;;4.22;1.98;;;;;;;;;;4997762;28;20048;-82
2023/04/04 08:02:12;;;;;;;4.32;1.75;;;;;;;;;;5001617;28;20057;-83
2023/04/04 08:04:40;;;;;;;3.63;1.45;;;;;;;;;;5021978;28;20057;-83
2023/04/04 08:07:07;;;;;;;3.20;1.65;;;;;;;;;;5033558;28;20098;-83
2023/04/04 08:09:35;;;;;;;4.82;2.40;;;;;;;;;;5030449;28;20042;-81
2023/04/04 08:12:04;;;;;;;3.33;2.50;;;;;;;;;;5011223;28;20066;-83
2023/04/04 08:14:31;;;;;;;3.55;1.88;;;;;;;;;;4994869;28;20077;-83
2023/04/04 08:17:00;;;;;;;6.30;2.13;;;;;;;;;;5006285;28;20048;-82
2023/04/04 08:19:27;;;;;;;3.13;1.90;;;;;;;;;;5012147;28;20064;-83
2023/04/04 08:21:54;;;;;;;3.70;1.98;;;;;;;;;;5016075;28;20051;-82
2023/04/04 08:24:21;;;;;;;3.88;1.88;;;;;;;;;;5016384;28;20061;-82
2023/04/04 08:26:48;;;;;;;3.83;2.20;;;;;;;;;;4996397;28;20148;-82
2023/04/04 08:29:33;;;;;;;4.47;2.08;;;;;;;;;;5013890;28;20087;-82
2023/04/04 08:32:00;;;;;;;3.17;1.90;;;;;;;;;;4999993;28;20712;-84
2023/04/04 08:34:27;;;;;;;5.45;2.17;;;;;;;;;;4998925;28;20046;-83
2023/04/04 08:36:54;;;;;;;3.70;1.52;;;;;;;;;;5006850;28;20073;-83
2023/04/04 08:39:21;;;;;;;3.05;2.28;;;;;;;;;;5013503;28;20060;-83
2023/04/04 08:41:48;;;;;;;3.78;1.80;;;;;;;;;;5019036;28;20053;-84
2023/04/04 08:44:19;;;;;;;3.17;2.00;;;;;;;;;;5014426;28;20057;-82
2023/04/04 08:46:46;;;;;;;4.85;2.35;;;;;;;;;;4995296;28;20042;-79
2023/04/04 08:49:13;;;;;;;3.83;2.25;;;;;;;;;;5006268;28;20057;-80
2023/04/04 08:51:41;;;;;;;3.20;1.70;;;;;;;;;;4994606;28;20532;-80
2023/04/04 08:54:10;;;;;;;4.20;2.00;;;;;;;;;;5005018;28;20112;-80
2023/04/04 08:56:37;;;;;;;4.28;2.30;;;;;;;;;;4995541;28;20491;-82
2023/04/04 08:59:03;;;;;;;1.95;1.73;;;;;;;;;;5009167;28;20066;-81
2023/04/04 09:01:30;;;;;;;3.42;2.00;;;;;;;;;;5004295;28;20050;-80
2023/04/04 09:03:58;;;;;;;2.53;1.80;;;;;;;;;;4995510;28;20073;-80
2023/04/04 09:06:24;;;;;;;5.05;1.75;;;;;;;;;;5006727;28;20046;-81
2023/04/04 09:08:52;;;;;;;2.83;1.98;;;;;;;;;;4993831;28;20076;-80
2023/04/04 09:11:21;;;;;;;4.18;1.85;;;;;;;;;;5002883;28;20589;-81
2023/04/04 09:13:49;;;;;;;3.13;2.08;;;;;;;;;;4988579;28;20064;-80
2023/04/04 09:16:16;;;;;;;3.38;1.80;;;;;;;;;;4994515;28;20056;-80
2023/04/04 09:18:43;;;;;;;4.20;1.90;;;;;;;;;;5005529;28;20046;-80
2023/04/04 09:21:10;;;;;;;4.63;2.75;;;;;;;;;;4996825;28;20042;-82
2023/04/04 09:23:37;;;;;;;3.47;2.00;;;;;;;;;;5005353;28;20054;-77
2023/04/04 09:27:01;;;;;;;3.95;1.98;;;;;;;;;;5006189;28;20046;-79
2023/04/04 09:29:27;;;;;;;2.37;2.10;;;;;;;;;;5009059;28;20100;-76
2023/04/04 09:31:54;;;;;;;3.00;2.08;;;;;;;;;;5008341;28;20050;-82
2023/04/04 09:34:21;;;;;;;2.92;1.60;;;;;;;;;;5030472;28;20137;-79
2023/04/04 09:36:48;;;;;;;2.50;1.70;;;;;;;;;;5010401;28;20087;-80
2023/04/04 09:39:19;;;;;;;2.53;1.95;;;;;;;;;;5016078;28;20060;-80
2023/04/04 09:41:46;;;;;;;3.53;1.63;;;;;;;;;;5010933;28;20109;-78
2023/04/04 09:44:13;;;;;;;4.07;1.73;;;;;;;;;;5011370;28;20057;-77
2023/04/04 09:46:40;;;;;;;2.50;1.80;;;;;;;;;;5005912;28;20430;-78
2023/04/04 09:49:11;;;;;;;2.63;2.38;;;;;;;;;;4993392;28;20053;-81
2023/04/04 09:51:40;;;;;;;2.55;1.98;;;;;;;;;;5015738;28;20046;-77
2023/04/04 09:54:11;;;;;;;2.60;1.73;;;;;;;;;;5027568;28;20133;-80
2023/04/04 09:56:51;;;;;;;4.20;2.75;;;;;;;;;;5002599;28;20106;-80
2023/04/04 09:59:18;;;;;;;5.22;1.92;;;;;;;;;;5010857;28;20064;-78
2023/04/04 10:01:45;;;;;;;3.05;1.85;;;;;;;;;;5007605;28;20038;-82
2023/04/04 10:04:12;;;;;;;3.58;1.90;;;;;;;;;;5016041;28;20541;-80
2023/04/04 10:06:39;;;;;;;3.63;1.90;;;;;;;;;;5008593;28;20053;-80
2023/04/04 10:09:06;;;;;;;3.65;2.00;;;;;;;;;;5000346;28;20062;-80
2023/04/04 10:11:34;;;;;;;3.20;2.17;;;;;;;;;;5002699;28;20077;-79
2023/04/04 10:14:05;;;;;;;6.45;2.00;;;;;;;;;;5005813;28;20046;-81
2023/04/04 10:16:33;;;;;;;4.13;2.47;;;;;;;;;;5010855;28;20084;-79
2023/04/04 10:19:01;;;;;;;3.30;2.28;;;;;;;;;;4997450;28;20054;-80
2023/04/04 10:21:27;;;;;;;4.60;2.20;;;;;;;;;;5007882;28;20046;-82
2023/04/04 10:23:54;;;;;;;4.32;1.98;;;;;;;;;;5000196;28;20096;-80
2023/04/04 10:26:21;;;;;;;3.60;2.05;;;;;;;;;;5003859;28;20093;-80
2023/04/04 10:28:49;;;;;;;3.38;2.28;;;;;;;;;;4997913;28;20076;-80
2023/04/04 10:31:26;;;;;;;4.82;2.17;;;;;;;;;;4999059;28;20050;-80
2023/04/04 10:34:06;;;;;;;2.97;2.40;;;;;;;;;;5004365;28;20052;-80
2023/04/04 10:36:58;;;;;;;3.53;2.28;;;;;;;;;;5023655;28;20056;-81
2023/04/04 10:39:26;;;;;;;5.28;2.22;;;;;;;;;;4990998;28;20053;-79
2023/04/04 10:41:53;;;;;;;4.60;2.22;;;;;;;;;;5011070;28;20137;-81
2023/04/04 10:44:37;;;;;;;5.80;2.20;;;;;;;;;;5010102;28;20092;-79
2023/04/04 10:47:21;;;;;;;3.90;1.92;;;;;;;;;;4999602;28;20114;-80
2023/04/04 10:49:48;;;;;;;;;;;;;;;;;;5009425;28;20118;-79
2023/04/04 10:52:20;;;;;;;4.38;2.17;;;;;;;;;;5012793;28;19926;-79
2023/04/04 10:54:53;;;;;;;2.90;1.98;;;;;;;;;;5030371;28;20054;-81
2023/04/04 10:57:21;;;;;;;4.85;2.30;;;;;;;;;;5011419;28;20104;-79
2023/04/04 11:00:04;;;;;;;3.33;2.10;;;;;;;;;;5037940;28;20077;-79
2023/04/04 11:02:54;;;;;;;2.67;1.90;;;;;;;;;;5003050;28;20132;-80
2023/04/04 11:05:24;;;;;;;3.25;2.13;;;;;;;;;;5018644;28;20332;-79
2023/04/04 11:08:05;;;;;;;5.50;2.05;;;;;;;;;;5028994;28;20064;-79
2023/04/04 11:10:37;;;;;;;4.20;2.30;;;;;;;;;;5001860;28;20080;-79
2023/04/04 11:13:15;;;;;;;3.28;1.92;;;;;;;;;;5014320;28;20046;-80
2023/04/04 11:15:51;;;;;;;2.65;1.95;;;;;;;;;;5012408;28;20070;-79
2023/04/04 11:18:22;;;;;;;4.03;2.20;;;;;;;;;;5023390;28;20069;-80
2023/04/04 11:21:04;;;;;;;2.67;2.15;;;;;;;;;;5014121;28;20109;-80
2023/04/04 11:23:57;;;;;;;5.30;2.30;;;;;;;;;;5009612;28;20046;-81
2023/04/04 11:26:27;;;;;;;3.63;2.33;;;;;;;;;;5007610;28;20053;-80
2023/04/04 11:28:56;;;;;;;3.03;1.85;;;;;;;;;;5023540;28;20061;-81
2023/04/04 11:31:28;;;;;;;2.55;1.85;;;;;;;;;;5010963;28;20080;-80
2023/04/04 11:34:03;;;;;;;3.95;2.10;;;;;;;;;;5006905;28;20109;-81
2023/04/04 11:36:36;;;;;;;2.25;1.90;;;;;;;;;;5027466;28;20052;-81
2023/04/04 11:39:26;;;;;;;4.25;2.05;;;;;;;;;;5021171;28;20041;-81
2023/04/04 11:42:07;;;;;;;2.47;2.10;;;;;;;;;;5011893;28;20694;-81
2023/04/04 11:44:54;;;;;;;4.20;1.92;;;;;;;;;;5005430;28;20157;-81
2023/04/04 11:47:22;;;;;;;3.45;2.00;;;;;;;;;;5004531;28;20042;-81
2023/04/04 11:49:52;;;;;;;2.30;2.10;;;;;;;;;;5007445;28;20042;-81
2023/04/04 11:52:22;;;;;;;2.60;2.03;;;;;;;;;;4998308;28;20108;-81
2023/04/04 11:54:51;;;;;;;3.97;2.00;;;;;;;;;;5015048;28;20399;-81
2023/04/04 11:57:20;;;;;;;3.20;2.45;;;;;;;;;;5005172;28;20054;-81
2023/04/04 11:59:50;;;;;;;2.70;1.73;;;;;;;;;;4996556;28;20077;-81
2023/04/04 12:02:30;;;;;;;3.72;2.10;;;;;;;;;;4981885;28;20054;-81
2023/04/04 12:04:58;;;;;;;4.60;1.92;;;;;;;;;;5004174;28;20046;-81
2023/04/04 12:07:26;;;;;;;5.38;2.15;;;;;;;;;;5009724;28;20053;-83
2023/04/04 12:09:53;;;;;;;4.50;2.13;;;;;;;;;;4994172;28;20121;-81
2023/04/04 12:12:22;;;;;;;2.95;1.92;;;;;;;;;;5004786;28;20097;-80
2023/04/04 12:14:50;;;;;;;4.40;2.53;;;;;;;;;;4996792;28;20050;-80
2023/04/04 12:17:19;;;;;;;4.47;2.15;;;;;;;;;;4999253;28;20057;-78
2023/04/04 12:19:46;;;;;;;3.08;2.13;;;;;;;;;;5021974;28;20057;-79
2023/04/04 12:22:15;;;;;;;3.30;1.80;;;;;;;;;;5015694;28;20056;-78
2023/04/04 12:24:42;;;;;;;3.70;2.15;;;;;;;;;;5005366;28;20073;-80
2023/04/04 12:27:10;;;;;;;7.00;2.13;;;;;;;;;;5005059;28;20522;-79
2023/04/04 12:29:40;;;;;;;4.68;2.13;;;;;;;;;;4990626;28;20054;-78
2023/04/04 12:32:09;;;;;;;5.75;1.90;;;;;;;;;;5009572;28;20061;-78
2023/04/04 12:34:42;;;;;;;4.05;1.88;;;;;;;;;;4994448;28;20057;-78
2023/04/04 12:37:18;;;;;;;4.10;2.30;;;;;;;;;;4990221;28;20116;-77
2023/04/04 12:39:48;;;;;;;3.72;1.70;;;;;;;;;;5017703;28;20132;-79
2023/04/04 12:42:21;;;;;;;3.45;2.10;;;;;;;;;;5019228;28;20471;-79
2023/04/04 12:44:50;;;;;;;2.90;1.80;;;;;;;;;;4992695;28;20050;-79
2023/04/04 12:47:20;;;;;;;3.15;1.95;;;;;;;;;;5001005;28;20453;-80
2023/04/04 12:49:47;;;;;;;3.88;2.10;;;;;;;;;;5002194;28;20050;-80
2023/04/04 12:52:20;;;;;;;4.07;1.85;;;;;;;;;;5006603;28;20125;-79
2023/04/04 12:54:50;;;;;;;2.08;1.60;;;;;;;;;;4993780;28;20073;-78
2023/04/04 12:57:34;;;;;;;3.33;1.92;;;;;;;;;;4991401;28;20120;-80
2023/04/04 13:00:03;;;;;;;3.75;2.17;;;;;;;;;;5004582;28;20085;-78
2023/04/04 13:02:30;;;;;;;2.42;1.67;;;;;;;;;;4992517;28;20081;-77
2023/04/04 13:04:57;;;;;;;3.60;1.77;;;;;;;;;;5008831;28;20050;-77
2023/04/04 13:07:31;;;;;;;2.70;1.73;;;;;;;;;;5000311;28;20461;-78
2023/04/04 13:10:04;;;;;;;4.20;1.88;;;;;;;;;;5002202;28;20054;-78
2023/04/04 13:12:50;;;;;;;;;;;;;;;;;;4981427;28;20061;-76
2023/04/04 13:15:18;;;;;;;2.97;1.90;;;;;;;;;;5011878;28;19922;-77
2023/04/04 13:17:47;;;;;;;3.17;1.75;;;;;;;;;;4986207;28;20049;-73
2023/04/04 13:20:16;;;;;;;4.60;1.90;;;;;;;;;;5000820;28;20133;-75
2023/04/04 13:22:49;;;;;;;4.22;1.80;;;;;;;;;;5001405;28;20388;-75
2023/04/04 13:25:16;;;;;;;3.13;1.85;;;;;;;;;;4989628;28;20062;-75
2023/04/04 13:27:43;;;;;;;2.08;1.83;;;;;;;;;;4999199;28;20061;-74
2023/04/04 13:30:10;;;;;;;3.80;1.85;;;;;;;;;;4990154;28;20116;-74
2023/04/04 13:32:37;;;;;;;1.95;1.40;;;;;;;;;;4994346;28;20046;-75
2023/04/04 13:35:05;;;;;;;4.18;1.80;;;;;;;;;;4999012;28;20060;-75
2023/04/04 13:37:32;;;;;;;2.60;1.85;;;;;;;;;;4995079;28;20112;-76
2023/04/04 13:40:00;;;;;;;2.78;1.58;;;;;;;;;;4996432;28;20049;-75
2023/04/04 13:42:30;;;;;;;2.67;1.88;;;;;;;;;;4990504;28;20050;-76
2023/04/04 13:44:57;;;;;;;2.60;1.60;;;;;;;;;;5000381;28;20042;-76
2023/04/04 13:47:26;;;;;;;3.58;1.80;;;;;;;;;;5002822;28;20498;-76
2023/04/04 13:49:55;;;;;;;3.65;1.73;;;;;;;;;;4987794;28;20162;-75
2023/04/04 13:52:22;;;;;;;4.80;2.20;;;;;;;;;;4997458;28;20584;-74
2023/04/04 13:54:53;;;;;;;4.60;1.70;;;;;;;;;;5004237;28;20100;-75
2023/04/04 13:57:20;;;;;;;2.13;1.92;;;;;;;;;;5021183;28;20510;-75
2023/04/04 13:59:48;;;;;;;3.88;2.63;;;;;;;;;;5002340;28;20052;-77
2023/04/04 14:02:15;;;;;;;2.38;1.98;;;;;;;;;;5017767;28;20043;-76
2023/04/04 14:04:42;;;;;;;4.15;2.03;;;;;;;;;;4997047;28;20124;-75
2023/04/04 14:07:09;;;;;;;2.33;1.88;;;;;;;;;;4998093;28;20629;-85
2023/04/04 14:09:40;;;;;;;2.47;1.83;;;;;;;;;;4988843;28;20109;-76
2023/04/04 14:12:07;;;;;;;2.28;1.65;;;;;;;;;;5012948;28;20046;-73
2023/04/04 14:14:34;;;;;;;3.28;2.05;;;;;;;;;;5009827;28;20049;-79
2023/04/04 14:17:03;;;;;;;4.75;1.80;;;;;;;;;;4997083;28;20074;-80
2023/04/04 14:19:30;;;;;;;2.97;1.58;;;;;;;;;;5006024;28;20102;-80
2023/04/04 14:21:58;;;;;;;3.83;1.98;;;;;;;;;;5003735;28;20069;-79
2023/04/04 14:24:25;;;;;;;2.20;1.73;;;;;;;;;;5000544;28;20581;-79
2023/04/04 14:26:52;;;;;;;4.18;1.90;;;;;;;;;;4998262;28;20518;-80
2023/04/04 14:29:20;;;;;;;3.13;2.10;;;;;;;;;;4995050;28;20061;-80
2023/04/04 14:31:47;;;;;;;2.60;2.17;;;;;;;;;;5024605;28;20469;-79
2023/04/04 14:34:14;;;;;;;3.63;2.10;;;;;;;;;;5009773;28;20149;-79
2023/04/04 14:36:41;;;;;;;2.67;1.83;;;;;;;;;;5024043;28;20524;-79
2023/04/04 14:39:09;;;;;;;3.00;2.20;;;;;;;;;;5014243;28;20454;-79
2023/04/04 14:41:37;;;;;;;2.47;1.88;;;;;;;;;;5008298;28;20060;-79
2023/04/04 14:44:04;;;;;;;2.35;1.70;;;;;;;;;;5010538;28;20061;-79
2023/04/04 14:46:32;;;;;;;2.95;1.60;;;;;;;;;;5008019;28;20114;-79
2023/04/04 14:49:01;;;;;;;2.58;2.15;;;;;;;;;;5006735;28;20065;-79
2023/04/04 14:51:30;;;;;;;3.85;1.90;;;;;;;;;;4991169;28;20057;-79
2023/04/04 14:53:58;;;;;;;2.83;1.98;;;;;;;;;;5014722;28;20057;-80